Time;durP1;ratioP1;P1;durP2;ratioP2;P2;SDS_P1;SDS_P2;PMS_P1;PMS_P2;Temp;Humidity;BMP_temperature;BMP_pressure;BME280_temperature;BME280_humidity;BME280_pressure;Samples;Min_cycle;Max_cycle;Signal;HPM_P1;HPM_P2
2021/11/03 00:01:14;;;;;;;;;20.25;20.25;;;;;;;;5082936;28;11159;-81
2021/11/03 00:03:42;;;;;;;;;20.25;17.50;;;;;;;;5065048;28;11946;-78
2021/11/03 00:06:10;;;;;;;;;23.75;19.50;;;;;;;;5085014;28;11559;-79
2021/11/03 00:08:37;;;;;;;;;16.50;14.50;;;;;;;;5082967;28;11517;-75
2021/11/03 00:11:06;;;;;;;;;22.00;20.50;;;;;;;;5083116;28;11183;-78
2021/11/03 00:13:33;;;;;;;;;24.75;21.25;;;;;;;;5084006;28;11557;-75
2021/11/03 00:16:02;;;;;;;;;15.75;15.50;;;;;;;;5082697;28;11601;-82
2021/11/03 00:18:29;;;;;;;;;17.25;17.25;;;;;;;;5093817;28;11288;-77
2021/11/03 00:20:57;;;;;;;;;17.25;17.25;;;;;;;;5083352;28;11191;-80
2021/11/03 00:23:25;;;;;;;;;18.75;18.75;;;;;;;;5084342;28;11156;-80
2021/11/03 00:25:52;;;;;;;;;24.25;17.75;;;;;;;;5083279;28;11136;-81
2021/11/03 00:28:22;;;;;;;;;20.25;19.25;;;;;;;;5083313;28;11267;-77
2021/11/03 00:30:52;;;;;;;;;17.00;15.00;;;;;;;;5084142;28;11204;-83
2021/11/03 00:33:22;;;;;;;;;18.25;17.25;;;;;;;;5084011;28;11128;-77
2021/11/03 00:35:49;;;;;;;;;18.50;17.50;;;;;;;;5084551;28;11152;-83
2021/11/03 00:38:16;;;;;;;;;19.25;17.00;;;;;;;;5082376;28;11093;-78
2021/11/03 00:40:44;;;;;;;;;19.50;18.75;;;;;;;;5065631;28;11173;-76
2021/11/03 00:43:11;;;;;;;;;18.50;18.50;;;;;;;;5082349;28;11478;-79
2021/11/03 00:45:38;;;;;;;;;19.50;19.00;;;;;;;;5082472;28;11224;-81
2021/11/03 00:48:06;;;;;;;;;21.25;21.25;;;;;;;;5074353;28;11367;-84
2021/11/03 00:50:36;;;;;;;;;22.75;21.50;;;;;;;;5082666;28;11603;-82
2021/11/03 00:53:03;;;;;;;;;20.00;20.00;;;;;;;;5084224;28;11464;-79
2021/11/03 00:55:30;;;;;;;;;20.00;18.25;;;;;;;;5082213;28;11488;-84
2021/11/03 00:57:58;;;;;;;;;24.00;21.25;;;;;;;;5083257;28;11893;-79
2021/11/03 01:00:26;;;;;;;;;23.50;21.00;;;;;;;;5081921;28;11198;-81
2021/11/03 01:02:53;;;;;;;;;21.75;21.75;;;;;;;;5084017;28;11600;-75
2021/11/03 01:05:23;;;;;;;;;20.50;19.00;;;;;;;;5083132;28;11522;-82
2021/11/03 01:07:51;;;;;;;;;20.50;19.25;;;;;;;;5082882;28;11217;-75
2021/11/03 01:10:20;;;;;;;;;21.25;21.25;;;;;;;;5083781;28;11491;-79
2021/11/03 01:12:48;;;;;;;;;19.00;14.75;;;;;;;;5081573;28;11323;-83
2021/11/03 01:15:20;;;;;;;;;18.75;17.00;;;;;;;;5083871;28;12065;-82
2021/11/03 01:17:47;;;;;;;;;14.00;14.00;;;;;;;;5081919;28;11151;-74
2021/11/03 01:20:15;;;;;;;;;13.50;13.50;;;;;;;;5081397;28;11198;-73
2021/11/03 01:22:43;;;;;;;;;18.00;16.00;;;;;;;;5064681;28;11183;-73
2021/11/03 01:25:13;;;;;;;;;15.25;14.25;;;;;;;;5084031;28;11188;-74
2021/11/03 01:27:40;;;;;;;;;15.50;15.50;;;;;;;;5083130;28;11186;-78
2021/11/03 01:30:12;;;;;;;;;10.75;10.75;;;;;;;;5081590;28;11153;-75
2021/11/03 01:32:39;;;;;;;;;15.00;10.50;;;;;;;;5084695;28;11075;-74
2021/11/03 01:35:09;;;;;;;;;13.00;11.75;;;;;;;;5073558;28;11032;-73
2021/11/03 01:37:37;;;;;;;;;12.50;10.75;;;;;;;;5078704;28;10909;-77
2021/11/03 01:40:06;;;;;;;;;13.75;11.50;;;;;;;;5078832;28;10971;-76
2021/11/03 01:42:35;;;;;;;;;14.75;14.50;;;;;;;;5082279;28;11039;-79
2021/11/03 01:45:03;;;;;;;;;16.75;16.75;;;;;;;;5083639;28;11147;-81
2021/11/03 01:47:45;;;;;;;;;20.75;16.00;;;;;;;;5064344;28;11053;-80
2021/11/03 01:50:24;;;;;;;;;18.50;14.00;;;;;;;;5084685;28;11175;-80
2021/11/03 01:52:58;;;;;;;;;10.75;10.75;;;;;;;;5086216;28;11112;-79
2021/11/03 01:55:26;;;;;;;;;19.75;17.50;;;;;;;;5086399;28;11120;-75
2021/11/03 01:58:01;;;;;;;;;13.50;13.50;;;;;;;;5087859;28;11198;-73
2021/11/03 02:00:31;;;;;;;;;14.50;14.50;;;;;;;;5083722;28;11088;-80
2021/11/03 02:03:03;;;;;;;;;13.75;12.25;;;;;;;;5084634;28;11059;-77
2021/11/03 02:05:31;;;;;;;;;15.00;14.00;;;;;;;;5085856;28;11094;-73
2021/11/03 02:07:59;;;;;;;;;14.50;13.75;;;;;;;;5087525;28;11157;-73
2021/11/03 02:10:26;;;;;;;;;15.00;15.00;;;;;;;;5079598;28;11204;-73
2021/11/03 02:12:55;;;;;;;;;15.00;14.50;;;;;;;;5087135;28;11335;-84
2021/11/03 02:15:22;;;;;;;;;13.75;11.75;;;;;;;;5101778;28;11063;-74
2021/11/03 02:17:50;;;;;;;;;7.00;7.00;;;;;;;;5085183;28;11100;-77
2021/11/03 02:20:19;;;;;;;;;17.25;14.75;;;;;;;;5085634;28;11052;-84
2021/11/03 02:23:12;;;;;;;;;16.00;15.50;;;;;;;;5085319;28;11774;-76
2021/11/03 02:25:45;;;;;;;;;12.75;12.75;;;;;;;;5071775;28;11926;-77
2021/11/03 02:28:13;;;;;;;;;14.75;10.50;;;;;;;;5086060;28;10942;-77
2021/11/03 02:30:40;;;;;;;;;13.50;11.00;;;;;;;;5062151;28;10956;-81
2021/11/03 02:33:13;;;;;;;;;11.50;11.50;;;;;;;;5086681;28;10940;-74
2021/11/03 02:35:41;;;;;;;;;14.50;12.25;;;;;;;;5085104;28;11648;-73
2021/11/03 02:38:09;;;;;;;;;18.00;13.75;;;;;;;;5086830;28;10866;-78
2021/11/03 02:40:44;;;;;;;;;14.75;13.75;;;;;;;;5085839;28;10997;-75
2021/11/03 02:43:16;;;;;;;;;14.00;14.00;;;;;;;;5089235;28;10896;-83
2021/11/03 02:45:48;;;;;;;;;14.00;14.00;;;;;;;;5084781;28;10868;-81
2021/11/03 02:48:16;;;;;;;;;10.00;10.00;;;;;;;;5084991;28;10885;-73
2021/11/03 02:50:55;;;;;;;;;11.00;9.75;;;;;;;;5085076;28;10713;-80
2021/11/03 02:53:22;;;;;;;;;12.00;11.50;;;;;;;;5084509;28;11591;-84
2021/11/03 02:55:51;;;;;;;;;14.75;12.00;;;;;;;;5087191;28;10713;-81
2021/11/03 02:58:18;;;;;;;;;12.00;12.00;;;;;;;;5085043;28;10799;-84
2021/11/03 03:00:46;;;;;;;;;10.00;10.00;;;;;;;;5082271;28;10822;-82
2021/11/03 03:03:13;;;;;;;;;10.50;8.00;;;;;;;;5077259;28;10779;-74
2021/11/03 03:05:42;;;;;;;;;14.25;13.00;;;;;;;;5091817;28;10643;-74
2021/11/03 03:08:10;;;;;;;;;9.50;9.50;;;;;;;;5087544;28;10717;-81
2021/11/03 03:10:37;;;;;;;;;10.75;10.25;;;;;;;;5084871;28;10845;-74
2021/11/03 03:13:06;;;;;;;;;12.00;12.00;;;;;;;;5086146;28;10639;-72
2021/11/03 03:15:33;;;;;;;;;11.25;9.50;;;;;;;;5084840;28;10761;-72
2021/11/03 03:18:00;;;;;;;;;10.75;10.75;;;;;;;;5067302;28;10721;-82
2021/11/03 03:20:28;;;;;;;;;10.50;10.50;;;;;;;;5085312;28;10579;-78
2021/11/03 03:22:55;;;;;;;;;10.25;10.25;;;;;;;;5100273;28;10843;-82
2021/11/03 03:25:22;;;;;;;;;10.00;10.00;;;;;;;;5084495;28;10745;-75
2021/11/03 03:27:49;;;;;;;;;10.75;10.75;;;;;;;;5084227;28;10663;-76
2021/11/03 03:30:18;;;;;;;;;8.75;7.25;;;;;;;;5085173;28;10605;-75
2021/11/03 03:32:45;;;;;;;;;15.75;11.00;;;;;;;;5084342;28;10644;-72
2021/11/03 03:35:14;;;;;;;;;8.00;8.00;;;;;;;;5084202;28;10557;-77
2021/11/03 03:37:41;;;;;;;;;6.50;6.50;;;;;;;;5085843;28;10597;-77
2021/11/03 03:40:10;;;;;;;;;9.50;9.50;;;;;;;;5083922;28;10621;-80
2021/11/03 03:42:37;;;;;;;;;7.75;6.75;;;;;;;;5086826;28;10536;-76
2021/11/03 03:45:05;;;;;;;;;11.00;9.00;;;;;;;;5083689;28;10488;-85
2021/11/03 03:47:34;;;;;;;;;8.50;8.50;;;;;;;;5085152;28;10754;-81
2021/11/03 03:50:01;;;;;;;;;9.50;9.50;;;;;;;;5066561;28;10661;-82
2021/11/03 03:52:29;;;;;;;;;11.00;11.00;;;;;;;;5083770;28;11389;-86
2021/11/03 03:54:56;;;;;;;;;10.25;9.00;;;;;;;;5084427;28;10670;-76
2021/11/03 03:57:23;;;;;;;;;9.50;9.50;;;;;;;;5084117;28;10597;-74
2021/11/03 03:59:50;;;;;;;;;10.75;7.75;;;;;;;;5077547;28;10510;-76
2021/11/03 04:02:18;;;;;;;;;15.00;10.75;;;;;;;;5082821;28;10454;-79
2021/11/03 04:04:46;;;;;;;;;12.00;12.00;;;;;;;;5085291;28;10500;-79
2021/11/03 04:07:14;;;;;;;;;7.00;7.00;;;;;;;;5097220;28;10563;-84
2021/11/03 04:09:41;;;;;;;;;11.00;11.00;;;;;;;;5083090;28;10366;-82
2021/11/03 04:12:09;;;;;;;;;10.75;10.75;;;;;;;;5083034;28;11089;-76
2021/11/03 04:14:37;;;;;;;;;10.25;8.50;;;;;;;;5083872;28;10547;-79
2021/11/03 04:17:05;;;;;;;;;9.00;9.00;;;;;;;;5083686;28;10461;-75
2021/11/03 04:19:32;;;;;;;;;8.00;8.00;;;;;;;;5082095;28;10450;-75
2021/11/03 04:22:01;;;;;;;;;9.00;9.00;;;;;;;;5065697;28;10493;-75
2021/11/03 04:24:28;;;;;;;;;9.25;9.25;;;;;;;;5082224;28;10494;-75
2021/11/03 04:26:56;;;;;;;;;5.75;5.75;;;;;;;;5083035;28;10374;-79
2021/11/03 04:29:24;;;;;;;;;6.75;6.75;;;;;;;;5082622;28;10327;-76
2021/11/03 04:31:51;;;;;;;;;7.50;7.50;;;;;;;;5083399;28;10216;-77
2021/11/03 04:34:19;;;;;;;;;10.75;10.75;;;;;;;;5083738;28;10460;-83
2021/11/03 04:36:46;;;;;;;;;10.00;10.00;;;;;;;;5083567;28;11199;-76
2021/11/03 04:39:15;;;;;;;;;11.25;10.25;;;;;;;;5084289;28;10474;-74
2021/11/03 04:41:42;;;;;;;;;10.25;10.25;;;;;;;;5069754;28;10577;-82
2021/11/03 04:44:10;;;;;;;;;14.25;12.00;;;;;;;;5080875;28;11303;-78
2021/11/03 04:46:38;;;;;;;;;11.25;11.25;;;;;;;;5083540;28;10599;-75
2021/11/03 04:49:06;;;;;;;;;10.50;10.50;;;;;;;;5065383;28;11355;-80
2021/11/03 04:51:33;;;;;;;;;12.00;12.00;;;;;;;;5084580;28;10668;-74
2021/11/03 04:54:00;;;;;;;;;12.00;12.00;;;;;;;;5081401;28;10554;-80
2021/11/03 04:56:35;;;;;;;;;11.00;11.00;;;;;;;;5086521;28;11197;-75
2021/11/03 04:59:02;;;;;;;;;16.25;11.75;;;;;;;;5085319;28;10792;-78
2021/11/03 05:01:29;;;;;;;;;11.00;11.00;;;;;;;;5083690;28;10658;-80
2021/11/03 05:03:57;;;;;;;;;10.25;10.25;;;;;;;;5083318;28;10778;-81
2021/11/03 05:06:31;;;;;;;;;12.25;11.00;;;;;;;;5084017;28;10675;-85
2021/11/03 05:08:59;;;;;;;;;12.00;12.00;;;;;;;;5081179;28;10861;-81
2021/11/03 05:11:26;;;;;;;;;15.50;13.50;;;;;;;;5082885;28;10844;-80
2021/11/03 05:13:56;;;;;;;;;11.00;10.25;;;;;;;;5082744;28;10846;-81
2021/11/03 05:16:25;;;;;;;;;12.00;12.00;;;;;;;;5082939;28;10739;-75
2021/11/03 05:18:52;;;;;;;;;10.00;8.25;;;;;;;;5083154;28;10714;-75
2021/11/03 05:21:20;;;;;;;;;11.50;11.25;;;;;;;;5083358;28;10680;-75
2021/11/03 05:23:47;;;;;;;;;10.75;8.50;;;;;;;;5084563;28;10728;-75
2021/11/03 05:26:17;;;;;;;;;9.50;9.50;;;;;;;;5087810;28;11286;-75
2021/11/03 05:28:46;;;;;;;;;17.00;12.75;;;;;;;;5077551;28;10770;-74
2021/11/03 05:31:15;;;;;;;;;15.00;12.00;;;;;;;;5105325;27;11471;-78
2021/11/03 05:33:42;;;;;;;;;12.75;12.75;;;;;;;;5085608;28;12236;-79
2021/11/03 05:36:11;;;;;;;;;18.00;11.00;;;;;;;;5086804;28;10990;-75
2021/11/03 05:38:38;;;;;;;;;8.50;7.50;;;;;;;;5085314;28;10865;-77
2021/11/03 05:41:06;;;;;;;;;15.25;12.00;;;;;;;;5082156;28;10841;-76
2021/11/03 05:43:33;;;;;;;;;10.00;10.00;;;;;;;;5068555;28;10821;-76
2021/11/03 05:46:01;;;;;;;;;14.00;11.00;;;;;;;;5067664;28;10771;-74
2021/11/03 05:48:39;;;;;;;;;14.75;13.50;;;;;;;;5087000;28;10953;-75
2021/11/03 05:51:07;;;;;;;;;15.00;15.00;;;;;;;;5085015;28;11045;-75
2021/11/03 05:53:37;;;;;;;;;13.00;13.00;;;;;;;;5086949;28;11088;-77
2021/11/03 05:56:06;;;;;;;;;17.50;13.50;;;;;;;;5086594;28;11051;-76
2021/11/03 05:58:33;;;;;;;;;13.50;13.50;;;;;;;;5086549;28;12163;-80
2021/11/03 06:01:01;;;;;;;;;14.75;14.75;;;;;;;;5086249;28;11128;-75
2021/11/03 06:03:29;;;;;;;;;23.50;21.50;;;;;;;;5084502;28;11392;-75
2021/11/03 06:05:57;;;;;;;;;29.00;23.75;;;;;;;;5087269;28;11328;-81
2021/11/03 06:08:24;;;;;;;;;23.75;21.50;;;;;;;;5085636;28;11485;-74
2021/11/03 06:10:55;;;;;;;;;24.00;20.00;;;;;;;;5085495;28;11647;-73
2021/11/03 06:13:23;;;;;;;;;23.25;22.50;;;;;;;;5084930;28;12339;-85
2021/11/03 06:15:50;;;;;;;;;24.00;21.50;;;;;;;;5068578;28;11491;-84
2021/11/03 06:18:18;;;;;;;;;23.50;19.25;;;;;;;;5064207;28;11456;-84
2021/11/03 06:20:46;;;;;;;;;18.00;18.00;;;;;;;;5067651;28;11485;-82
2021/11/03 06:23:14;;;;;;;;;21.50;20.75;;;;;;;;5087497;28;11501;-86
2021/11/03 06:25:42;;;;;;;;;27.25;27.25;;;;;;;;5099541;28;11496;-87
2021/11/03 06:28:09;;;;;;;;;30.00;27.50;;;;;;;;5094015;28;11603;-81
2021/11/03 06:30:38;;;;;;;;;29.00;27.75;;;;;;;;5085107;28;11541;-82
2021/11/03 06:33:07;;;;;;;;;33.75;32.25;;;;;;;;5087267;28;12271;-81
2021/11/03 06:35:38;;;;;;;;;27.00;23.75;;;;;;;;5085394;28;11583;-85
2021/11/03 06:38:09;;;;;;;;;33.50;29.25;;;;;;;;5086423;28;11529;-81
2021/11/03 06:40:36;;;;;;;;;24.75;23.25;;;;;;;;5087766;28;11584;-84
2021/11/03 06:43:04;;;;;;;;;27.50;27.50;;;;;;;;5070210;28;11498;-82
2021/11/03 06:45:33;;;;;;;;;29.50;28.25;;;;;;;;5086444;28;11493;-86
2021/11/03 06:48:00;;;;;;;;;22.25;19.25;;;;;;;;5067841;28;11517;-85
2021/11/03 06:50:30;;;;;;;;;31.75;31.50;;;;;;;;5087111;28;11502;-85
2021/11/03 06:52:58;;;;;;;;;25.00;22.25;;;;;;;;5085773;28;11490;-79
2021/11/03 06:55:27;;;;;;;;;21.25;19.00;;;;;;;;5086015;28;11523;-81
2021/11/03 06:57:56;;;;;;;;;15.50;15.50;;;;;;;;5086316;28;11495;-80
2021/11/03 07:00:26;;;;;;;;;19.50;19.50;;;;;;;;5083931;28;11388;-81
2021/11/03 07:02:54;;;;;;;;;19.00;19.00;;;;;;;;5086377;28;11468;-85
2021/11/03 07:05:21;;;;;;;;;19.25;17.50;;;;;;;;5081273;28;11477;-79
2021/11/03 07:07:49;;;;;;;;;18.00;18.00;;;;;;;;5086525;28;11495;-79
2021/11/03 07:10:21;;;;;;;;;18.25;18.00;;;;;;;;5084982;28;11461;-80
2021/11/03 07:12:50;;;;;;;;;21.75;19.75;;;;;;;;5066801;28;11516;-80
2021/11/03 07:15:18;;;;;;;;;16.50;16.50;;;;;;;;5067269;28;11465;-85
2021/11/03 07:17:46;;;;;;;;;14.25;14.25;;;;;;;;5085041;28;11563;-81
2021/11/03 07:20:14;;;;;;;;;23.00;23.00;;;;;;;;5085389;28;11459;-80
2021/11/03 07:22:41;;;;;;;;;18.75;17.50;;;;;;;;5084471;28;11547;-81
2021/11/03 07:25:10;;;;;;;;;21.50;21.50;;;;;;;;5085818;28;11506;-79
2021/11/03 07:27:38;;;;;;;;;15.25;15.25;;;;;;;;5085167;28;11503;-81
2021/11/03 07:30:08;;;;;;;;;23.00;21.50;;;;;;;;5064963;28;11481;-86
2021/11/03 07:32:36;;;;;;;;;23.25;21.25;;;;;;;;5083687;28;11579;-80
2021/11/03 07:35:03;;;;;;;;;24.00;20.75;;;;;;;;5078703;28;11479;-78
2021/11/03 07:37:31;;;;;;;;;13.50;12.00;;;;;;;;5083477;28;11619;-76
2021/11/03 07:39:58;;;;;;;;;22.00;22.00;;;;;;;;5083332;28;11537;-77
2021/11/03 07:42:25;;;;;;;;;27.00;21.75;;;;;;;;5088126;28;11604;-78
2021/11/03 07:44:53;;;;;;;;;22.00;19.50;;;;;;;;5064524;28;11613;-75
2021/11/03 07:47:22;;;;;;;;;18.75;17.25;;;;;;;;5048518;28;11499;-77
2021/11/03 07:49:49;;;;;;;;;22.25;22.25;;;;;;;;5082264;28;11485;-77
2021/11/03 07:52:16;;;;;;;;;29.25;21.00;;;;;;;;5081803;28;11593;-77
2021/11/03 07:54:44;;;;;;;;;25.50;21.75;;;;;;;;5083993;28;11659;-75
2021/11/03 07:57:11;;;;;;;;;19.75;19.25;;;;;;;;5063823;28;11630;-79
2021/11/03 07:59:39;;;;;;;;;29.00;25.00;;;;;;;;5081706;28;11602;-79
2021/11/03 08:02:06;;;;;;;;;26.75;26.75;;;;;;;;5080810;27;12296;-79
2021/11/03 08:04:35;;;;;;;;;19.50;18.00;;;;;;;;5083547;28;11661;-77
2021/11/03 08:07:03;;;;;;;;;25.25;24.50;;;;;;;;5063229;28;11561;-77
2021/11/03 08:09:31;;;;;;;;;21.50;21.50;;;;;;;;5082425;28;11509;-77
2021/11/03 08:12:01;;;;;;;;;26.50;24.25;;;;;;;;5083015;28;11535;-79
2021/11/03 08:14:29;;;;;;;;;24.75;24.75;;;;;;;;5081015;28;11524;-80
2021/11/03 08:17:00;;;;;;;;;23.75;23.50;;;;;;;;5081790;28;11527;-79
2021/11/03 08:19:31;;;;;;;;;29.50;26.00;;;;;;;;5082489;28;11544;-79
2021/11/03 08:22:00;;;;;;;;;22.00;21.75;;;;;;;;5083482;28;11487;-78
2021/11/03 08:24:27;;;;;;;;;23.50;22.75;;;;;;;;5081287;28;11560;-81
2021/11/03 08:26:55;;;;;;;;;22.75;22.75;;;;;;;;5081100;28;11534;-79
2021/11/03 08:29:24;;;;;;;;;27.75;24.75;;;;;;;;5081119;28;11589;-80
2021/11/03 08:31:55;;;;;;;;;26.50;24.75;;;;;;;;5080989;28;11462;-80
2021/11/03 08:34:23;;;;;;;;;24.25;21.00;;;;;;;;5082563;28;11562;-80
2021/11/03 08:36:51;;;;;;;;;15.00;15.00;;;;;;;;5081592;28;11487;-79
2021/11/03 08:39:20;;;;;;;;;23.00;21.00;;;;;;;;5081534;28;11525;-80
2021/11/03 08:41:47;;;;;;;;;26.75;22.75;;;;;;;;5064449;28;11478;-80
2021/11/03 08:44:15;;;;;;;;;20.50;19.00;;;;;;;;5079392;28;11494;-78
2021/11/03 08:46:42;;;;;;;;;24.50;22.00;;;;;;;;5082502;28;11503;-75
2021/11/03 08:49:10;;;;;;;;;23.25;19.50;;;;;;;;5080948;28;11603;-77
2021/11/03 08:51:39;;;;;;;;;21.75;21.75;;;;;;;;5082628;28;11486;-78
2021/11/03 08:54:07;;;;;;;;;19.75;19.75;;;;;;;;5080034;28;11490;-80
2021/11/03 08:56:37;;;;;;;;;24.75;18.50;;;;;;;;5081626;28;11495;-79
2021/11/03 08:59:06;;;;;;;;;23.75;23.25;;;;;;;;5078741;28;11447;-80
2021/11/03 09:01:33;;;;;;;;;24.25;22.00;;;;;;;;5082188;28;12222;-78
2021/11/03 09:04:00;;;;;;;;;28.50;24.00;;;;;;;;5082954;28;11552;-77
2021/11/03 09:06:28;;;;;;;;;20.75;20.25;;;;;;;;5081570;28;11536;-81
2021/11/03 09:08:55;;;;;;;;;24.25;18.75;;;;;;;;5070435;28;11366;-82
2021/11/03 09:11:23;;;;;;;;;21.75;21.75;;;;;;;;5081942;28;12310;-80
2021/11/03 09:13:52;;;;;;;;;23.25;22.75;;;;;;;;5062137;28;12402;-89
2021/11/03 09:16:20;;;;;;;;;26.25;23.50;;;;;;;;5078966;28;11560;-79
2021/11/03 09:18:48;;;;;;;;;31.75;28.00;;;;;;;;5079490;28;11512;-80
2021/11/03 09:21:16;;;;;;;;;24.25;21.50;;;;;;;;5078515;28;11485;-78
2021/11/03 09:23:44;;;;;;;;;27.75;24.50;;;;;;;;5079458;28;11531;-80
2021/11/03 09:26:12;;;;;;;;;20.25;20.25;;;;;;;;5079968;28;11483;-79
2021/11/03 09:28:40;;;;;;;;;24.25;21.25;;;;;;;;5062929;28;11208;-80
2021/11/03 09:31:10;;;;;;;;;26.25;25.50;;;;;;;;5080597;27;11192;-80
2021/11/03 09:33:38;;;;;;;;;28.50;21.50;;;;;;;;5080531;28;11229;-84
2021/11/03 09:36:07;;;;;;;;;30.75;26.00;;;;;;;;5081018;28;11212;-89
2021/11/03 09:38:35;;;;;;;;;28.00;26.75;;;;;;;;5081709;28;11306;-78
2021/11/03 09:41:07;;;;;;;;;32.25;27.00;;;;;;;;5084485;28;11492;-75
2021/11/03 09:43:36;;;;;;;;;35.75;32.50;;;;;;;;5081675;28;11486;-83
2021/11/03 09:46:22;;;;;;;;;24.75;24.75;;;;;;;;5078796;28;11488;-81
2021/11/03 09:48:54;;;;;;;;;30.75;29.75;;;;;;;;5083727;28;11482;-90
2021/11/03 09:51:25;;;;;;;;;33.00;28.75;;;;;;;;5065038;28;11472;-81
2021/11/03 09:53:54;;;;;;;;;31.50;29.50;;;;;;;;5079793;28;11515;-79
2021/11/03 09:56:25;;;;;;;;;34.75;33.75;;;;;;;;5081159;28;11621;-80
2021/11/03 09:59:01;;;;;;;;;30.25;26.25;;;;;;;;5079979;28;11536;-81
2021/11/03 10:01:42;;;;;;;;;33.25;28.50;;;;;;;;5062137;28;11456;-80
2021/11/03 10:04:23;;;;;;;;;41.75;39.00;;;;;;;;5079481;28;11461;-79
2021/11/03 10:06:55;;;;;;;;;34.50;31.50;;;;;;;;5074405;28;11503;-81
2021/11/03 10:09:22;;;;;;;;;37.50;36.00;;;;;;;;5081260;28;11599;-82
2021/11/03 10:11:53;;;;;;;;;36.25;33.50;;;;;;;;5064764;28;11481;-80
2021/11/03 10:14:21;;;;;;;;;36.50;34.25;;;;;;;;5083427;28;11505;-79
2021/11/03 10:16:52;;;;;;;;;27.50;27.00;;;;;;;;5085056;28;12470;-79
2021/11/03 10:19:30;;;;;;;;;31.25;31.25;;;;;;;;5083828;28;12378;-80
2021/11/03 10:22:00;;;;;;;;;30.00;29.50;;;;;;;;5066072;28;12298;-81
2021/11/03 10:24:37;;;;;;;;;25.25;22.00;;;;;;;;5083902;28;11484;-79
2021/11/03 10:27:22;;;;;;;;;23.25;23.25;;;;;;;;5079278;28;12304;-79
2021/11/03 10:29:51;;;;;;;;;19.50;19.50;;;;;;;;5077150;28;11485;-86
2021/11/03 10:32:32;;;;;;;;;24.75;22.25;;;;;;;;5084519;28;11627;-83
2021/11/03 10:35:14;;;;;;;;;27.75;24.00;;;;;;;;5084333;28;11499;-87
2021/11/03 10:37:45;;;;;;;;;38.50;35.50;;;;;;;;5080344;28;11486;-83
2021/11/03 10:40:26;;;;;;;;;35.00;31.25;;;;;;;;5084661;28;11514;-83
2021/11/03 10:42:56;;;;;;;;;25.50;23.75;;;;;;;;5082507;28;11313;-87
2021/11/03 10:45:29;;;;;;;;;21.25;19.25;;;;;;;;5085081;28;10998;-84
2021/11/03 10:48:13;;;;;;;;;23.50;21.25;;;;;;;;5065803;28;10721;-85
2021/11/03 10:50:42;;;;;;;;;25.50;23.00;;;;;;;;5079826;28;10842;-83
2021/11/03 10:53:20;;;;;;;;;22.75;22.75;;;;;;;;5085579;28;10699;-85
2021/11/03 10:55:51;;;;;;;;;24.75;24.75;;;;;;;;5083161;28;10587;-82
2021/11/03 10:58:25;;;;;;;;;28.75;22.25;;;;;;;;5084048;28;10614;-82
2021/11/03 11:00:59;;;;;;;;;31.50;30.75;;;;;;;;5082125;28;10638;-83
2021/11/03 11:03:30;;;;;;;;;25.00;22.25;;;;;;;;5081995;28;10725;-83
2021/11/03 11:06:05;;;;;;;;;30.50;25.50;;;;;;;;5084744;28;11327;-83
2021/11/03 11:08:32;;;;;;;;;47.25;37.50;;;;;;;;5084114;28;10494;-83
2021/11/03 11:11:03;;;;;;;;;32.25;32.25;;;;;;;;5084876;28;10949;-82
2021/11/03 11:13:39;;;;;;;;;26.25;25.50;;;;;;;;5080399;28;10663;-82
2021/11/03 11:16:15;;;;;;;;;25.25;25.25;;;;;;;;5082365;28;10683;-82
2021/11/03 11:18:57;;;;;;;;;24.75;23.75;;;;;;;;5064128;28;10367;-81
2021/11/03 11:21:36;;;;;;;;;28.50;26.75;;;;;;;;5082580;28;10118;-82
2021/11/03 11:24:11;;;;;;;;;31.25;31.00;;;;;;;;5083626;28;10066;-81
2021/11/03 11:26:46;;;;;;;;;29.50;29.50;;;;;;;;5083542;28;10316;-80
2021/11/03 11:29:21;;;;;;;;;31.00;28.50;;;;;;;;5085662;28;10870;-81
2021/11/03 11:31:57;;;;;;;;;26.00;26.00;;;;;;;;5082771;28;9772;-81
2021/11/03 11:34:42;;;;;;;;;26.00;22.25;;;;;;;;5079954;28;9705;-81
2021/11/03 11:37:17;;;;;;;;;30.33;26.00;;;;;;;;5095679;28;9514;-82
2021/11/03 11:39:49;;;;;;;;;28.67;28.67;;;;;;;;5077911;28;9407;-83
2021/11/03 11:42:20;;;;;;;;;29.67;24.33;;;;;;;;5083265;28;9348;-81
2021/11/03 11:44:53;;;;;;;;;23.67;19.33;;;;;;;;5082887;28;9201;-82
2021/11/03 11:47:30;;;;;;;;;24.00;22.67;;;;;;;;5082188;28;9198;-82
2021/11/03 11:49:59;;;;;;;;;19.75;19.75;;;;;;;;5082771;28;9040;-86
2021/11/03 11:52:29;;;;;;;;;23.75;23.75;;;;;;;;5082626;28;8861;-78
2021/11/03 11:55:09;;;;;;;;;24.67;19.67;;;;;;;;5085567;28;8993;-85
2021/11/03 11:57:38;;;;;;;;;14.75;14.25;;;;;;;;5085013;28;8842;-85
2021/11/03 12:00:20;;;;;;;;;19.00;19.00;;;;;;;;5065595;28;8851;-88
2021/11/03 12:03:00;;;;;;;;;20.00;20.00;;;;;;;;5086534;28;8870;-81
2021/11/03 12:05:46;;;;;;;;;19.50;17.00;;;;;;;;5064742;28;8854;-80
2021/11/03 12:08:20;;;;;;;;;24.25;22.50;;;;;;;;5079477;28;8866;-81
2021/11/03 12:11:13;;;;;;;;;18.75;16.00;;;;;;;;5079429;28;8835;-82
2021/11/03 12:13:58;;;;;;;;;21.50;20.00;;;;;;;;5082371;28;8866;-84
2021/11/03 12:16:34;;;;;;;;;21.50;18.75;;;;;;;;5082554;28;8862;-85
2021/11/03 12:19:04;;;;;;;;;11.25;7.00;;;;;;;;5079118;28;8858;-81
2021/11/03 12:21:42;;;;;;;;;25.00;21.75;;;;;;;;5082033;28;8892;-77
2021/11/03 12:24:33;;;;;;;;;15.25;14.50;;;;;;;;5083159;28;8870;-80
2021/11/03 12:27:35;;;;;;;;;16.50;15.00;;;;;;;;5063349;28;9647;-79
2021/11/03 12:30:37;;;;;;;;;16.25;14.50;;;;;;;;5036974;28;8865;-81
2021/11/03 12:33:09;;;;;;;;;18.25;16.25;;;;;;;;5035807;28;8942;-85
2021/11/03 12:36:11;;;;;;;;;17.75;15.75;;;;;;;;5070470;28;8866;-83
2021/11/03 12:38:53;;;;;;;;;14.75;14.75;;;;;;;;5081959;28;8943;-83
2021/11/03 12:41:23;;;;;;;;;16.75;16.50;;;;;;;;5082568;28;8827;-88
2021/11/03 12:43:56;;;;;;;;;20.25;16.00;;;;;;;;5080083;28;8850;-81
2021/11/03 12:46:23;;;;;;;;;16.00;14.50;;;;;;;;5082945;28;8882;-85
2021/11/03 12:48:54;;;;;;;;;15.25;15.25;;;;;;;;5082357;28;8874;-78
2021/11/03 12:51:24;;;;;;;;;19.25;17.25;;;;;;;;5079897;28;8850;-84
2021/11/03 12:53:56;;;;;;;;;14.33;14.33;;;;;;;;5082290;28;8978;-84
2021/11/03 12:56:26;;;;;;;;;17.50;15.50;;;;;;;;5062602;28;8873;-82
2021/11/03 12:58:56;;;;;;;;;13.75;12.75;;;;;;;;5082155;28;8929;-84
2021/11/03 13:01:27;;;;;;;;;10.25;10.25;;;;;;;;5080059;28;8929;-82
2021/11/03 13:03:56;;;;;;;;;14.25;12.75;;;;;;;;5082846;28;9024;-85
2021/11/03 13:06:27;;;;;;;;;17.50;15.25;;;;;;;;5080483;28;8956;-85
2021/11/03 13:08:56;;;;;;;;;14.25;13.25;;;;;;;;5081678;28;8931;-83
2021/11/03 13:11:26;;;;;;;;;23.00;21.75;;;;;;;;5081346;28;8942;-84
2021/11/03 13:13:56;;;;;;;;;19.25;17.75;;;;;;;;5081173;28;8861;-85
2021/11/03 13:16:30;;;;;;;;;18.50;18.00;;;;;;;;5082902;28;8838;-82
2021/11/03 13:18:58;;;;;;;;;18.25;18.25;;;;;;;;5080390;28;8869;-83
2021/11/03 13:21:30;;;;;;;;;14.00;14.00;;;;;;;;5083249;28;8874;-82
2021/11/03 13:24:02;;;;;;;;;16.00;15.00;;;;;;;;5082335;28;8969;-84
2021/11/03 13:26:33;;;;;;;;;21.50;20.25;;;;;;;;5080225;28;8869;-83
2021/11/03 13:29:04;;;;;;;;;17.00;16.25;;;;;;;;5082253;28;9583;-80
2021/11/03 13:31:37;;;;;;;;;26.50;26.25;;;;;;;;5082199;28;9588;-81
2021/11/03 13:34:20;;;;;;;;;33.00;27.00;;;;;;;;5081358;28;8923;-78
2021/11/03 13:37:01;;;;;;;;;24.25;22.25;;;;;;;;5080381;28;9041;-76
2021/11/03 13:39:32;;;;;;;;;32.75;30.00;;;;;;;;5080919;28;8880;-79
2021/11/03 13:42:01;;;;;;;;;40.75;35.25;;;;;;;;5081602;28;8930;-80
2021/11/03 13:44:41;;;;;;;;;29.00;27.50;;;;;;;;5082360;28;8870;-80
2021/11/03 13:47:23;;;;;;;;;28.50;27.00;;;;;;;;5085174;28;8884;-80
2021/11/03 13:50:23;;;;;;;;;37.00;34.00;;;;;;;;5063029;28;8869;-78
2021/11/03 13:53:13;;;;;;;;;42.00;36.67;;;;;;;;5085363;28;9077;-78
2021/11/03 13:55:44;;;;;;;;;33.00;26.75;;;;;;;;5087641;28;9048;-77
2021/11/03 13:58:42;;;;;;;;;35.25;30.00;;;;;;;;5083588;28;8890;-79
2021/11/03 14:01:22;;;;;;;;;53.00;43.50;;;;;;;;5064135;28;8863;-79
2021/11/03 14:04:02;;;;;;;;;25.00;24.25;;;;;;;;5084163;28;9629;-79
2021/11/03 14:06:31;;;;;;;;;19.50;16.75;;;;;;;;5085052;28;8939;-79
2021/11/03 14:09:09;;;;;;;;;33.33;31.00;;;;;;;;5086641;28;9012;-79
2021/11/03 14:11:39;;;;;;;;;17.50;17.25;;;;;;;;5085423;28;9037;-78
2021/11/03 14:14:09;;;;;;;;;20.75;20.75;;;;;;;;5087072;28;8882;-79
2021/11/03 14:16:48;;;;;;;;;25.00;22.33;;;;;;;;5084757;28;10109;-79
2021/11/03 14:19:23;;;;;;;;;21.67;18.00;;;;;;;;5080488;28;9013;-79
2021/11/03 14:21:52;;;;;;;;;18.00;17.50;;;;;;;;5066998;28;8933;-78
2021/11/03 14:24:24;;;;;;;;;13.75;13.75;;;;;;;;5086165;28;8898;-78
2021/11/03 14:26:54;;;;;;;;;12.50;12.50;;;;;;;;5066879;28;8932;-78
2021/11/03 14:29:21;;;;;;;;;14.00;10.00;;;;;;;;5083022;28;8896;-79
2021/11/03 14:31:50;;;;;;;;;13.00;13.00;;;;;;;;5084497;28;8806;-78
2021/11/03 14:34:21;;;;;;;;;12.00;12.00;;;;;;;;5086684;28;8850;-78
2021/11/03 14:36:48;;;;;;;;;11.75;11.75;;;;;;;;5082141;28;8853;-78
2021/11/03 14:39:19;;;;;;;;;9.25;9.25;;;;;;;;5094442;28;8868;-77
2021/11/03 14:41:46;;;;;;;;;3.00;3.00;;;;;;;;5079600;28;8920;-78